Terminal Aerodrome Forecast
Issued by NWS

Home | Current Version | Previous Version | Text Only | Print | Product List | Glossary On
Versions: 1 2 3 4 5 6 7 8 9 10 11 12 13 14 15 16 17
000
FTUS41 KALY 231628 AAB
TAFPSF
TAF AMD
KPSF 231628Z 2316/2412 29014KT P6SM SKC
     FM232300 26008KT P6SM SKC
     FM240200 VRB03KT P6SM SCT100 SCT250=

USA.gov is the U.S. government's official web portal to all federal, state and local government web resources and services.